Time;durP1;ratioP1;P1;durP2;ratioP2;P2;SDS_P1;SDS_P2;PMS_P1;PMS_P2;Temp;Humidity;BMP_temperature;BMP_pressure;BME280_temperature;BME280_humidity;BME280_pressure;Samples;Min_cycle;Max_cycle;Signal;HPM_P1;HPM_P2
2021/05/22 00:02:22;;;;;;;1.20;1.10;;;22.60;55.00;;;;;;5060196;28;20494;-39
2021/05/22 00:04:48;;;;;;;2.13;1.23;;;22.60;54.80;;;;;;5057329;28;20078;-35
2021/05/22 00:07:13;;;;;;;2.00;1.10;;;22.50;55.20;;;;;;5058063;28;20024;-34
2021/05/22 00:09:39;;;;;;;1.73;1.10;;;22.50;55.40;;;;;;5057972;28;20029;-45
2021/05/22 00:12:05;;;;;;;1.88;1.27;;;22.50;55.20;;;;;;5058444;28;20077;-35
2021/05/22 00:14:30;;;;;;;2.22;1.20;;;22.50;55.20;;;;;;5058825;28;20027;-33
2021/05/22 00:16:56;;;;;;;1.60;1.02;;;22.60;55.10;;;;;;5068753;28;20051;-39
2021/05/22 00:19:22;;;;;;;1.63;1.20;;;22.50;55.40;;;;;;5067549;28;20034;-36
2021/05/22 00:21:47;;;;;;;2.58;1.17;;;22.50;55.30;;;;;;5067712;28;20051;-34
2021/05/22 00:24:13;;;;;;;1.40;1.30;;;22.50;55.70;;;;;;5067734;28;20024;-32
2021/05/22 00:26:38;;;;;;;1.10;0.90;;;22.60;55.00;;;;;;5068577;28;20074;-38
2021/05/22 00:29:04;;;;;;;1.80;1.27;;;22.50;55.00;;;;;;5069183;28;20039;-37
2021/05/22 00:31:30;;;;;;;1.58;1.20;;;22.60;54.80;;;;;;5066981;28;20032;-38
2021/05/22 00:33:55;;;;;;;2.42;1.50;;;22.50;55.20;;;;;;5066455;28;20031;-38
2021/05/22 00:36:21;;;;;;;2.38;1.15;;;22.50;55.30;;;;;;5066826;28;20748;-37
2021/05/22 00:38:46;;;;;;;1.45;1.08;;;22.50;55.30;;;;;;5067387;28;20028;-39
2021/05/22 00:41:12;;;;;;;2.00;1.23;;;22.60;55.80;;;;;;5069855;28;20017;-33
2021/05/22 00:43:38;;;;;;;2.17;1.33;;;22.50;55.20;;;;;;5066975;28;20433;-38
2021/05/22 00:46:04;;;;;;;3.05;1.17;;;22.40;55.20;;;;;;5067012;28;20562;-38
2021/05/22 00:48:30;;;;;;;2.40;1.00;;;22.40;55.50;;;;;;5067038;28;20526;-35
2021/05/22 00:50:55;;;;;;;1.65;0.82;;;22.40;55.60;;;;;;5067303;28;20020;-35
2021/05/22 00:53:21;;;;;;;1.75;1.35;;;22.50;55.60;;;;;;5068098;28;20063;-35
2021/05/22 00:55:47;;;;;;;1.45;1.30;;;22.70;55.30;;;;;;5066404;28;20086;-35
2021/05/22 00:58:13;;;;;;;1.70;1.27;;;22.70;54.50;;;;;;5066877;28;20555;-35
2021/05/22 01:00:51;;;;;;;1.30;1.10;;;22.70;54.30;;;;;;5063148;28;20446;-35
2021/05/22 01:03:18;;;;;;;1.63;1.13;;;22.70;54.20;;;;;;5063249;28;20028;-36
2021/05/22 01:05:43;;;;;;;1.42;1.10;;;22.80;54.20;;;;;;5067472;28;20063;-36
2021/05/22 01:08:19;;;;;;;1.80;1.25;;;22.80;54.30;;;;;;5067937;28;20071;-36
2021/05/22 01:11:08;;;;;;;2.45;1.08;;;22.90;53.90;;;;;;5047830;28;20040;-35
2021/05/22 01:13:36;;;;;;;2.13;1.30;;;22.80;54.10;;;;;;5040639;28;20037;-35
2021/05/22 01:16:01;;;;;;;1.85;1.50;;;22.80;54.30;;;;;;5036179;28;20049;-35
2021/05/22 01:18:27;;;;;;;1.58;0.90;;;22.80;54.10;;;;;;5029166;28;20063;-35
2021/05/22 01:20:57;;;;;;;1.45;1.20;;;22.90;54.10;;;;;;5015710;28;20029;-36
2021/05/22 01:23:38;;;;;;;1.92;1.10;;;22.90;54.70;;;;;;5045002;28;20037;-35
2021/05/22 01:26:04;;;;;;;3.00;1.25;;;22.90;54.00;;;;;;5039409;28;20017;-35
2021/05/22 01:28:29;;;;;;;3.17;1.10;;;22.90;54.00;;;;;;5035519;28;20048;-35
2021/05/22 01:30:55;;;;;;;1.70;1.17;;;22.90;54.80;;;;;;5041150;28;20094;-35
2021/05/22 01:33:21;;;;;;;2.35;1.42;;;22.90;54.10;;;;;;5047204;28;20032;-36
2021/05/22 01:35:47;;;;;;;1.35;1.05;;;22.90;54.00;;;;;;5048005;28;20057;-35
2021/05/22 01:38:12;;;;;;;1.10;0.73;;;23.00;53.90;;;;;;5048442;28;20063;-36
2021/05/22 01:40:38;;;;;;;2.88;1.42;;;22.90;53.90;;;;;;5046746;28;20491;-36
2021/05/22 01:43:05;;;;;;;1.63;0.95;;;22.90;54.10;;;;;;5045602;28;20036;-35
2021/05/22 01:45:36;;;;;;;1.27;1.10;;;22.90;54.00;;;;;;5046302;28;20667;-35
2021/05/22 01:48:03;;;;;;;2.08;1.05;;;22.90;54.10;;;;;;5012530;28;20110;-35
2021/05/22 01:50:29;;;;;;;1.58;1.30;;;22.90;54.00;;;;;;5049669;28;20033;-35
2021/05/22 01:52:55;;;;;;;2.40;1.17;;;22.90;54.00;;;;;;5046128;28;20036;-35
2021/05/22 01:55:21;;;;;;;1.85;1.30;;;22.90;54.00;;;;;;5028020;28;20033;-35
2021/05/22 01:57:47;;;;;;;1.55;1.17;;;23.00;53.90;;;;;;5013853;28;20040;-36
2021/05/22 02:00:16;;;;;;;1.20;0.90;;;22.90;54.10;;;;;;5046174;28;20108;-35
2021/05/22 02:02:58;;;;;;;2.17;1.13;;;22.90;54.10;;;;;;5047997;28;20020;-35
2021/05/22 02:05:24;;;;;;;2.17;1.00;;;22.90;53.90;;;;;;5048868;28;20394;-35
2021/05/22 02:07:49;;;;;;;1.45;1.33;;;23.00;53.90;;;;;;5027272;28;20033;-36
2021/05/22 02:10:15;;;;;;;1.50;1.30;;;22.90;53.80;;;;;;5027834;28;20036;-34
2021/05/22 02:12:41;;;;;;;2.40;1.40;;;23.00;54.50;;;;;;5043887;28;20091;-36
2021/05/22 02:15:09;;;;;;;2.30;1.08;;;22.90;53.90;;;;;;5018465;28;20040;-36
2021/05/22 02:17:34;;;;;;;3.00;1.35;;;22.90;53.80;;;;;;5050704;28;20050;-34
2021/05/22 02:20:00;;;;;;;1.40;1.15;;;23.00;53.90;;;;;;5064018;28;20667;-35
2021/05/22 02:22:26;;;;;;;1.30;0.90;;;23.00;53.80;;;;;;5033256;28;20033;-36
2021/05/22 02:24:51;;;;;;;1.50;1.30;;;22.90;53.80;;;;;;5069673;28;20044;-36
2021/05/22 02:27:17;;;;;;;3.42;1.33;;;23.00;54.00;;;;;;5036511;28;20104;-36
2021/05/22 02:29:43;;;;;;;1.33;1.02;;;22.90;53.90;;;;;;5071475;28;20028;-36
2021/05/22 02:32:09;;;;;;;1.10;1.00;;;22.90;54.00;;;;;;5070046;28;20024;-36
2021/05/22 02:34:42;;;;;;;1.25;1.00;;;22.90;53.90;;;;;;5037459;28;20028;-35
2021/05/22 02:37:08;;;;;;;4.33;1.13;;;22.90;53.90;;;;;;5067905;28;20406;-36
2021/05/22 02:39:33;;;;;;;1.17;1.08;;;22.90;53.90;;;;;;5044480;28;20103;-34
2021/05/22 02:42:01;;;;;;;3.13;1.17;;;22.90;53.90;;;;;;5051553;28;20024;-36
2021/05/22 02:44:26;;;;;;;1.85;1.38;;;22.80;54.10;;;;;;5047922;28;20021;-36
2021/05/22 02:46:52;;;;;;;2.88;0.90;;;22.90;54.10;;;;;;5037052;28;20032;-36
2021/05/22 02:49:19;;;;;;;1.35;1.00;;;22.90;53.90;;;;;;5052521;28;20059;-36
2021/05/22 02:51:47;;;;;;;1.10;1.02;;;22.90;54.00;;;;;;5050961;28;20064;-36
2021/05/22 02:54:13;;;;;;;1.40;1.00;;;22.80;54.00;;;;;;5050590;28;20514;-35
2021/05/22 02:56:38;;;;;;;1.10;0.93;;;22.80;54.00;;;;;;5041489;28;20025;-36
2021/05/22 02:59:04;;;;;;;1.30;1.00;;;22.80;54.10;;;;;;5069792;28;20037;-35
2021/05/22 03:01:30;;;;;;;1.13;1.00;;;22.80;54.10;;;;;;5036968;28;20024;-35
2021/05/22 03:03:56;;;;;;;1.00;0.90;;;22.80;54.00;;;;;;5050646;28;20020;-35
2021/05/22 03:06:22;;;;;;;3.05;1.08;;;22.80;54.00;;;;;;5052206;28;20517;-36
2021/05/22 03:08:48;;;;;;;1.30;1.02;;;22.70;54.20;;;;;;5034366;28;20509;-35
2021/05/22 03:11:15;;;;;;;1.45;0.88;;;22.80;54.00;;;;;;5068760;28;20075;-36
2021/05/22 03:13:41;;;;;;;1.20;1.10;;;22.80;54.00;;;;;;5064744;28;20060;-35
2021/05/22 03:16:06;;;;;;;1.55;1.10;;;22.80;54.00;;;;;;5069476;28;20091;-36
2021/05/22 03:18:32;;;;;;;1.50;1.30;;;22.80;54.00;;;;;;5069020;28;20062;-35
2021/05/22 03:20:57;;;;;;;1.23;1.00;;;22.80;54.00;;;;;;5069008;28;20107;-36
2021/05/22 03:23:23;;;;;;;1.60;0.90;;;22.80;53.90;;;;;;5071212;28;20047;-35
2021/05/22 03:25:49;;;;;;;1.15;1.00;;;22.80;54.10;;;;;;5065943;28;20029;-36
2021/05/22 03:28:15;;;;;;;1.13;0.90;;;22.80;54.10;;;;;;5063965;28;20484;-36
2021/05/22 03:30:40;;;;;;;1.10;0.80;;;22.80;54.10;;;;;;5068014;28;20017;-35
2021/05/22 03:33:06;;;;;;;1.48;1.00;;;22.80;54.00;;;;;;5051122;28;20028;-35
2021/05/22 03:35:31;;;;;;;1.40;1.10;;;22.80;54.00;;;;;;5071995;28;20162;-36
2021/05/22 03:37:57;;;;;;;1.42;1.00;;;22.80;54.30;;;;;;5069078;28;20035;-36
2021/05/22 03:40:22;;;;;;;1.38;1.10;;;22.80;54.00;;;;;;5067746;28;20033;-35
2021/05/22 03:42:48;;;;;;;1.13;1.02;;;22.80;53.90;;;;;;5068932;28;20017;-35
2021/05/22 03:45:14;;;;;;;1.27;1.10;;;22.90;53.90;;;;;;5067905;28;20029;-35
2021/05/22 03:47:39;;;;;;;1.35;1.05;;;22.80;53.90;;;;;;5070118;28;20025;-35
2021/05/22 03:50:05;;;;;;;1.15;1.05;;;22.80;54.10;;;;;;5069166;28;20028;-36
2021/05/22 03:52:31;;;;;;;1.65;1.00;;;22.70;54.10;;;;;;5067564;28;20033;-35
2021/05/22 03:54:57;;;;;;;1.55;1.00;;;22.70;54.10;;;;;;5067482;28;20390;-35
2021/05/22 03:57:22;;;;;;;0.85;0.77;;;22.80;54.00;;;;;;5067685;28;20024;-35
2021/05/22 03:59:48;;;;;;;1.50;1.23;;;22.80;54.00;;;;;;5069619;28;20035;-35
2021/05/22 04:02:13;;;;;;;1.00;0.90;;;22.70;54.00;;;;;;5070317;28;20020;-33
2021/05/22 04:04:39;;;;;;;1.10;0.90;;;22.70;54.20;;;;;;5068718;28;20115;-35
2021/05/22 04:07:04;;;;;;;1.23;0.90;;;22.70;54.00;;;;;;5066727;28;20036;-35
2021/05/22 04:09:30;;;;;;;1.60;1.10;;;22.80;54.00;;;;;;5069158;28;20067;-35
2021/05/22 04:11:56;;;;;;;1.83;1.10;;;22.80;54.00;;;;;;5068161;28;20052;-35
2021/05/22 04:14:21;;;;;;;0.85;0.80;;;22.80;54.00;;;;;;5071160;28;20502;-35
2021/05/22 04:16:47;;;;;;;1.15;1.02;;;22.80;53.90;;;;;;5067731;28;20036;-35
2021/05/22 04:19:12;;;;;;;1.10;0.98;;;22.80;54.00;;;;;;5067228;28;20036;-36
2021/05/22 04:21:38;;;;;;;1.00;0.90;;;22.80;53.90;;;;;;5068268;28;20028;-35
2021/05/22 04:24:04;;;;;;;1.23;1.00;;;22.80;53.90;;;;;;5068604;28;20032;-35
2021/05/22 04:26:29;;;;;;;1.02;0.90;;;22.90;53.80;;;;;;5071456;28;20064;-37
2021/05/22 04:28:55;;;;;;;0.88;0.80;;;22.90;53.80;;;;;;5068267;28;20063;-35
2021/05/22 04:31:20;;;;;;;1.65;0.90;;;22.90;53.70;;;;;;5066902;28;20036;-35
2021/05/22 04:33:46;;;;;;;1.70;1.00;;;22.80;54.30;;;;;;5068284;28;20044;-36
2021/05/22 04:36:12;;;;;;;1.05;0.95;;;22.80;53.80;;;;;;5067249;28;20029;-35
2021/05/22 04:38:37;;;;;;;1.00;0.90;;;22.80;53.90;;;;;;5034567;28;20047;-35
2021/05/22 04:41:03;;;;;;;1.85;0.88;;;22.80;53.70;;;;;;5068394;28;20021;-35
2021/05/22 04:43:29;;;;;;;2.05;0.90;;;22.80;53.90;;;;;;5066240;28;20128;-35
2021/05/22 04:45:54;;;;;;;1.65;1.02;;;22.80;53.80;;;;;;5067633;28;20023;-35
2021/05/22 04:48:20;;;;;;;1.08;0.73;;;22.80;53.80;;;;;;5068275;28;20557;-35
2021/05/22 04:50:47;;;;;;;0.95;0.90;;;22.80;53.70;;;;;;5069003;28;20020;-35
2021/05/22 04:53:12;;;;;;;0.90;0.70;;;22.80;53.70;;;;;;5069017;28;20116;-35
2021/05/22 04:55:38;;;;;;;1.23;1.05;;;22.80;53.80;;;;;;5066509;28;20095;-35
2021/05/22 04:58:03;;;;;;;1.00;0.90;;;22.80;54.40;;;;;;5067219;28;20043;-35
2021/05/22 05:00:29;;;;;;;1.42;1.10;;;22.90;53.70;;;;;;5067713;28;20021;-42
2021/05/22 05:02:56;;;;;;;1.15;0.85;;;22.80;53.60;;;;;;5067360;28;20025;-35
2021/05/22 05:05:22;;;;;;;1.13;0.82;;;22.80;53.70;;;;;;5070097;28;20113;-35
2021/05/22 05:07:47;;;;;;;1.02;0.80;;;22.80;53.80;;;;;;5067342;28;20129;-36
2021/05/22 05:10:13;;;;;;;1.48;1.00;;;22.80;54.40;;;;;;5052063;28;20032;-35
2021/05/22 05:12:39;;;;;;;1.08;0.90;;;22.70;53.90;;;;;;5066216;28;20027;-35
2021/05/22 05:15:05;;;;;;;0.93;0.82;;;22.60;53.90;;;;;;5066366;28;20434;-37
2021/05/22 05:17:31;;;;;;;1.33;0.98;;;22.60;54.10;;;;;;5068552;28;20032;-36
2021/05/22 05:19:59;;;;;;;0.90;0.90;;;22.70;54.00;;;;;;5067164;28;20493;-37
2021/05/22 05:22:26;;;;;;;0.80;0.70;;;22.70;53.90;;;;;;5065778;28;20085;-35
2021/05/22 05:24:53;;;;;;;1.33;1.20;;;22.80;53.80;;;;;;5066414;28;20499;-36
2021/05/22 05:27:19;;;;;;;1.20;0.90;;;22.70;53.70;;;;;;5069912;28;20024;-34
2021/05/22 05:29:44;;;;;;;0.80;0.80;;;22.70;53.80;;;;;;5073244;28;20028;-35
2021/05/22 05:32:10;;;;;;;0.93;0.60;;;22.70;53.80;;;;;;5062436;28;20045;-35
2021/05/22 05:34:35;;;;;;;1.08;0.90;;;22.70;53.70;;;;;;5066236;28;20048;-35
2021/05/22 05:37:01;;;;;;;1.20;1.00;;;22.80;53.70;;;;;;5065892;28;20398;-35
2021/05/22 05:39:27;;;;;;;0.90;0.77;;;22.80;53.70;;;;;;5069769;28;20094;-35
2021/05/22 05:41:53;;;;;;;0.85;0.82;;;22.80;53.60;;;;;;5065619;28;20056;-35
2021/05/22 05:44:19;;;;;;;1.58;0.85;;;22.80;53.70;;;;;;5077702;28;20037;-35
2021/05/22 05:46:44;;;;;;;2.15;0.95;;;22.80;54.30;;;;;;5077641;28;20102;-36
2021/05/22 05:49:10;;;;;;;0.95;0.85;;;22.80;53.70;;;;;;5071836;28;20048;-36
2021/05/22 05:51:35;;;;;;;1.45;0.90;;;22.70;53.70;;;;;;5072612;28;20028;-36
2021/05/22 05:54:01;;;;;;;1.05;0.70;;;22.70;53.90;;;;;;5076220;28;20483;-35
2021/05/22 05:56:26;;;;;;;1.25;1.15;;;22.70;54.50;;;;;;5080237;28;20035;-36
2021/05/22 05:58:52;;;;;;;0.90;0.80;;;22.70;53.70;;;;;;5067467;28;20102;-37
2021/05/22 06:01:17;;;;;;;1.27;0.60;;;22.70;53.70;;;;;;5068135;28;20068;-36
2021/05/22 06:03:43;;;;;;;1.23;0.93;;;22.70;53.70;;;;;;5072908;28;20501;-36
2021/05/22 06:06:09;;;;;;;1.10;0.68;;;22.70;54.40;;;;;;5068164;28;20116;-35
2021/05/22 06:08:35;;;;;;;0.60;0.60;;;22.60;53.70;;;;;;5070442;28;20490;-35
2021/05/22 06:11:01;;;;;;;1.60;1.05;;;22.60;54.20;;;;;;5068831;28;20036;-36
2021/05/22 06:13:30;;;;;;;1.92;0.73;;;22.50;54.20;;;;;;5075532;28;20032;-37
2021/05/22 06:18:33;;;;;;;1.13;1.00;;;22.60;54.10;;;;;;5070952;28;20400;-35
2021/05/22 06:21:00;;;;;;;0.60;0.52;;;22.60;54.20;;;;;;5074401;28;20032;-37
2021/05/22 06:23:25;;;;;;;1.27;0.63;;;22.50;54.20;;;;;;5079198;28;20024;-36
2021/05/22 06:25:51;;;;;;;1.00;0.80;;;22.50;54.10;;;;;;5074194;28;20054;-36
2021/05/22 06:28:17;;;;;;;1.05;0.68;;;22.60;54.70;;;;;;5073851;28;20036;-36
2021/05/22 06:30:43;;;;;;;0.93;0.88;;;22.60;54.00;;;;;;5071045;28;20028;-36
2021/05/22 06:33:08;;;;;;;1.00;0.90;;;22.60;53.90;;;;;;5072493;28;20029;-36
2021/05/22 06:35:34;;;;;;;1.50;0.80;;;22.50;54.10;;;;;;5077310;28;20020;-34
2021/05/22 06:37:59;;;;;;;1.23;0.80;;;22.50;54.70;;;;;;5071215;28;20089;-36
2021/05/22 06:40:25;;;;;;;1.13;0.60;;;22.40;54.30;;;;;;5065963;28;20490;-35
2021/05/22 06:42:50;;;;;;;1.08;0.60;;;22.40;54.40;;;;;;5072185;28;20057;-35
2021/05/22 06:45:17;;;;;;;1.25;0.75;;;22.30;54.70;;;;;;5073126;28;20021;-35
2021/05/22 06:47:43;;;;;;;1.45;1.05;;;22.30;54.50;;;;;;5078299;28;20461;-35
2021/05/22 06:50:09;;;;;;;1.02;0.80;;;22.30;54.70;;;;;;5078658;28;20048;-34
2021/05/22 06:52:35;;;;;;;1.65;1.20;;;22.30;54.70;;;;;;5076154;28;20036;-34
2021/05/22 06:55:00;;;;;;;1.33;0.80;;;22.30;54.60;;;;;;5075989;28;20394;-35
2021/05/22 06:57:26;;;;;;;2.75;0.75;;;22.30;54.70;;;;;;5074485;28;20032;-35
2021/05/22 06:59:53;;;;;;;1.10;0.50;;;22.40;54.60;;;;;;5075821;28;20181;-35
2021/05/22 07:02:18;;;;;;;1.25;0.80;;;22.40;54.60;;;;;;5078666;28;20044;-36
2021/05/22 07:04:44;;;;;;;1.00;0.90;;;22.40;54.50;;;;;;5075562;28;20405;-35
2021/05/22 07:07:09;;;;;;;1.10;0.73;;;22.40;54.30;;;;;;5077488;28;20032;-35
2021/05/22 07:09:35;;;;;;;1.95;0.70;;;22.30;54.70;;;;;;5078821;28;20028;-34
2021/05/22 07:12:01;;;;;;;1.00;0.80;;;22.20;54.60;;;;;;5079536;28;20016;-35
2021/05/22 07:14:27;;;;;;;0.80;0.65;;;22.20;54.60;;;;;;5080722;28;20584;-36
2021/05/22 07:16:55;;;;;;;1.38;0.77;;;22.40;54.20;;;;;;5067879;28;20053;-35
2021/05/22 07:19:21;;;;;;;1.20;0.98;;;22.40;54.10;;;;;;5068439;28;20044;-35
2021/05/22 07:21:46;;;;;;;1.30;1.00;;;22.50;53.80;;;;;;5052765;28;20394;-35
2021/05/22 07:24:12;;;;;;;1.25;0.80;;;22.60;53.40;;;;;;5058858;28;20414;-35
2021/05/22 07:26:38;;;;;;;1.85;0.95;;;22.70;53.10;;;;;;5070938;28;20035;-35
2021/05/22 07:29:04;;;;;;;1.20;0.90;;;22.70;53.00;;;;;;5071302;28;20021;-35
2021/05/22 07:31:29;;;;;;;1.17;0.73;;;22.80;52.80;;;;;;5069689;28;20033;-35
2021/05/22 07:33:55;;;;;;;0.90;0.80;;;22.70;52.90;;;;;;5069896;28;20385;-35
2021/05/22 07:36:21;;;;;;;1.00;0.63;;;22.70;53.00;;;;;;5069218;28;20021;-35
2021/05/22 07:38:46;;;;;;;1.35;0.85;;;22.60;53.00;;;;;;5069773;28;20261;-35
2021/05/22 07:41:12;;;;;;;1.42;0.68;;;22.60;53.30;;;;;;5071205;28;20028;-34
2021/05/22 07:43:38;;;;;;;1.10;0.90;;;22.50;53.40;;;;;;5069323;28;20028;-35
2021/05/22 07:46:03;;;;;;;1.00;0.52;;;22.60;53.40;;;;;;5069424;28;20025;-34
2021/05/22 07:48:30;;;;;;;1.05;0.70;;;22.50;53.50;;;;;;5067903;28;20028;-35
2021/05/22 07:50:56;;;;;;;1.08;0.60;;;22.50;53.70;;;;;;5065843;28;20021;-36
2021/05/22 07:53:21;;;;;;;3.75;0.85;;;22.40;54.00;;;;;;5061027;28;20021;-35
2021/05/22 07:55:47;;;;;;;0.90;0.80;;;22.30;54.40;;;;;;5066859;28;20465;-35
2021/05/22 07:58:15;;;;;;;0.90;0.80;;;22.30;54.50;;;;;;5068497;28;20036;-35
2021/05/22 08:00:42;;;;;;;1.27;0.85;;;22.30;54.40;;;;;;5064891;28;20025;-36
2021/05/22 08:03:07;;;;;;;0.55;0.55;;;22.50;54.10;;;;;;5066204;28;20033;-35
2021/05/22 08:05:33;;;;;;;1.13;0.63;;;22.60;53.70;;;;;;5070621;28;20437;-35
2021/05/22 08:07:59;;;;;;;1.83;0.75;;;22.70;53.90;;;;;;5069751;28;20028;-35
2021/05/22 08:10:24;;;;;;;0.73;0.60;;;22.60;54.30;;;;;;5068088;28;20055;-35
2021/05/22 08:12:50;;;;;;;1.25;0.73;;;22.50;54.70;;;;;;5067201;28;20036;-35
2021/05/22 08:15:15;;;;;;;1.17;0.80;;;22.30;55.20;;;;;;5068770;28;20052;-36
2021/05/22 08:17:41;;;;;;;1.65;0.63;;;22.30;55.30;;;;;;5067316;28;20086;-36
2021/05/22 08:20:07;;;;;;;5.07;0.70;;;22.30;55.20;;;;;;5064038;28;20028;-33
2021/05/22 08:22:34;;;;;;;0.77;0.55;;;22.40;55.20;;;;;;5061820;28;20034;-35
2021/05/22 08:25:00;;;;;;;1.88;0.95;;;22.50;54.90;;;;;;5061560;28;20096;-36
2021/05/22 08:27:25;;;;;;;2.20;0.80;;;22.60;54.70;;;;;;5063863;28;20100;-35
2021/05/22 08:29:51;;;;;;;2.45;0.80;;;22.70;54.40;;;;;;5056386;28;23837;-35
2021/05/22 08:32:16;;;;;;;1.25;0.73;;;22.70;54.10;;;;;;5059229;28;20103;-35
2021/05/22 08:34:42;;;;;;;1.08;0.98;;;22.50;55.20;;;;;;5060336;28;20423;-35
2021/05/22 08:37:08;;;;;;;4.30;0.77;;;22.50;55.00;;;;;;5058543;28;20078;-35
2021/05/22 08:39:34;;;;;;;1.23;0.80;;;22.40;55.20;;;;;;5045776;28;20029;-36
2021/05/22 08:42:02;;;;;;;2.05;0.60;;;22.50;55.30;;;;;;5060607;28;20029;-36
2021/05/22 08:44:28;;;;;;;6.00;0.90;;;22.50;55.10;;;;;;5059740;28;20035;-35
2021/05/22 08:46:53;;;;;;;2.63;0.95;;;22.40;55.10;;;;;;5062094;28;20032;-36
2021/05/22 08:49:19;;;;;;;2.47;0.80;;;22.40;55.50;;;;;;5030256;28;20497;-35
2021/05/22 08:51:44;;;;;;;3.15;0.80;;;22.40;55.70;;;;;;5044688;28;20024;-36
2021/05/22 08:54:10;;;;;;;3.53;0.77;;;22.40;55.50;;;;;;5057037;28;20033;-35
2021/05/22 08:56:36;;;;;;;0.80;0.52;;;22.50;55.40;;;;;;5046827;28;20582;-35
2021/05/22 08:59:01;;;;;;;0.82;0.55;;;22.50;55.40;;;;;;5059168;28;20545;-35
2021/05/22 09:01:27;;;;;;;1.17;0.52;;;22.60;55.40;;;;;;5064214;28;20041;-35
2021/05/22 09:03:55;;;;;;;3.30;0.50;;;22.60;55.00;;;;;;5059567;28;20529;-37
2021/05/22 09:06:21;;;;;;;1.55;0.77;;;22.70;54.50;;;;;;5059156;28;20112;-35
2021/05/22 09:09:01;;;;;;;1.98;0.93;;;22.80;54.50;;;;;;5057176;28;20142;-35
2021/05/22 09:11:27;;;;;;;0.82;0.63;;;22.90;53.80;;;;;;5062157;28;20565;-35
2021/05/22 09:13:53;;;;;;;1.10;0.77;;;23.10;53.10;;;;;;5057600;28;20107;-38
2021/05/22 09:16:20;;;;;;;0.88;0.60;;;23.20;52.80;;;;;;5057072;28;20052;-39
2021/05/22 09:18:46;;;;;;;1.48;0.40;;;23.30;52.60;;;;;;5061584;28;20040;-36
2021/05/22 09:21:12;;;;;;;2.45;0.90;;;23.30;52.30;;;;;;5043183;28;20031;-35
2021/05/22 09:23:39;;;;;;;1.15;0.60;;;23.40;52.80;;;;;;5062898;28;20544;-35
2021/05/22 09:26:06;;;;;;;1.17;0.70;;;23.30;53.20;;;;;;5059464;28;20059;-37
2021/05/22 09:28:36;;;;;;;1.27;0.60;;;23.30;52.60;;;;;;5061889;28;20074;-36
2021/05/22 09:31:03;;;;;;;1.77;0.70;;;23.30;53.00;;;;;;5059577;28;20499;-36
2021/05/22 09:33:30;;;;;;;2.08;0.90;;;23.30;52.80;;;;;;5055935;28;20468;-36
2021/05/22 09:36:00;;;;;;;4.93;2.80;;;23.40;52.50;;;;;;5056441;28;20017;-35
2021/05/22 09:38:43;;;;;;;8.23;4.65;;;23.40;53.00;;;;;;5059816;28;20043;-36
2021/05/22 09:41:22;;;;;;;11.93;5.10;;;23.40;52.60;;;;;;5057908;28;20036;-37
2021/05/22 09:44:25;;;;;;;13.75;6.22;;;23.50;52.20;;;;;;5062619;28;20430;-37
2021/05/22 09:46:50;;;;;;;12.88;6.90;;;23.50;51.80;;;;;;5059828;28;20088;-38
2021/05/22 09:49:26;;;;;;;21.77;9.15;;;23.40;51.90;;;;;;5059400;28;20521;-36
2021/05/22 09:51:58;;;;;;;31.73;15.25;;;23.40;52.60;;;;;;5057460;28;20021;-40
2021/05/22 09:54:46;;;;;;;38.40;17.98;;;23.50;53.10;;;;;;5057623;28;20098;-36
2021/05/22 09:57:15;;;;;;;37.35;16.63;;;23.30;53.60;;;;;;5059285;28;20534;-36
2021/05/22 09:59:42;;;;;;;34.83;16.73;;;23.30;53.50;;;;;;5060637;28;20521;-36
2021/05/22 10:02:08;;;;;;;37.97;17.13;;;23.30;53.70;;;;;;5058162;28;20028;-36
2021/05/22 10:04:33;;;;;;;40.05;17.40;;;23.30;54.00;;;;;;5062128;28;20118;-37
2021/05/22 10:06:59;;;;;;;31.30;15.02;;;23.30;54.10;;;;;;5052499;28;20095;-36
2021/05/22 10:09:25;;;;;;;31.60;14.05;;;23.30;54.10;;;;;;5054113;28;20504;-38
2021/05/22 10:12:07;;;;;;;28.58;13.82;;;23.10;54.70;;;;;;5055744;28;21009;-37
2021/05/22 10:14:37;;;;;;;25.52;13.07;;;23.10;55.00;;;;;;5059405;28;20503;-36
2021/05/22 10:17:03;;;;;;;27.05;13.02;;;23.20;55.00;;;;;;5046890;28;20051;-37
2021/05/22 10:19:30;;;;;;;23.15;11.68;;;23.00;55.10;;;;;;5042891;28;20037;-36
2021/05/22 10:21:56;;;;;;;27.25;13.07;;;23.20;54.80;;;;;;5045421;28;20033;-37
2021/05/22 10:24:22;;;;;;;27.17;12.45;;;23.10;54.40;;;;;;5036896;28;20029;-36
2021/05/22 10:26:47;;;;;;;25.25;11.85;;;23.20;54.10;;;;;;5043493;28;20566;-37
2021/05/22 10:29:13;;;;;;;24.65;11.57;;;23.30;54.20;;;;;;5030206;28;20032;-37
2021/05/22 10:31:39;;;;;;;21.80;10.80;;;23.30;53.70;;;;;;5027513;28;20384;-37
2021/05/22 10:34:13;;;;;;;24.13;11.38;;;23.30;53.60;;;;;;5027227;28;20032;-37
2021/05/22 10:36:51;;;;;;;;;;;23.20;54.00;;;;;;5042232;28;20022;-37
2021/05/22 10:39:39;;;;;;;17.67;9.70;;;23.30;53.70;;;;;;5043168;28;19927;-37
2021/05/22 10:42:18;;;;;;;18.40;9.57;;;23.40;53.60;;;;;;5047241;28;20020;-37
2021/05/22 10:44:44;;;;;;;21.25;9.48;;;23.40;53.50;;;;;;5045201;28;20047;-36
2021/05/22 10:47:12;;;;;;;18.30;9.02;;;23.40;53.70;;;;;;5037582;28;20571;-37
2021/05/22 10:50:07;;;;;;;19.85;9.07;;;23.30;54.20;;;;;;5014012;28;20059;-37
2021/05/22 10:52:34;;;;;;;16.40;8.50;;;23.30;53.60;;;;;;5037301;28;20444;-37
2021/05/22 10:55:06;;;;;;;16.05;8.00;;;23.30;53.10;;;;;;5046245;28;20056;-37
2021/05/22 10:57:32;;;;;;;11.65;7.15;;;23.30;52.10;;;;;;5047403;28;20072;-36
2021/05/22 11:00:18;;;;;;;15.35;7.82;;;23.30;50.90;;;;;;5048740;28;20048;-36
2021/05/22 11:02:54;;;;;;;10.23;5.82;;;23.30;51.10;;;;;;5030619;28;20024;-35
2021/05/22 11:05:24;;;;;;;11.68;6.65;;;23.30;51.80;;;;;;5047737;28;20025;-40
2021/05/22 11:08:09;;;;;;;11.85;6.75;;;23.20;50.10;;;;;;5047863;28;20027;-38
2021/05/22 11:10:38;;;;;;;7.85;4.68;;;23.30;50.10;;;;;;5048832;28;20035;-36
2021/05/22 11:13:05;;;;;;;12.20;6.22;;;23.10;50.00;;;;;;5047957;28;20028;-37
2021/05/22 11:15:38;;;;;;;16.27;7.20;;;23.00;51.10;;;;;;5056703;28;20123;-37
2021/05/22 11:18:04;;;;;;;22.83;9.57;;;23.10;50.30;;;;;;5059776;28;20039;-43
2021/05/22 11:20:30;;;;;;;13.50;6.50;;;23.30;50.50;;;;;;5040943;28;20028;-36
2021/05/22 11:23:00;;;;;;;15.73;6.93;;;23.40;48.10;;;;;;5058995;28;20071;-34
2021/05/22 11:25:28;;;;;;;17.55;6.43;;;23.40;48.60;;;;;;5058912;28;20025;-35
2021/05/22 11:28:01;;;;;;;12.68;5.65;;;23.30;47.60;;;;;;5061846;28;20083;-36
2021/05/22 11:30:27;;;;;;;13.02;5.68;;;23.30;48.40;;;;;;5061111;28;20029;-38
2021/05/22 11:32:54;;;;;;;16.05;6.47;;;23.30;48.60;;;;;;5059263;28;20568;-36
2021/05/22 11:35:38;;;;;;;12.40;5.35;;;23.10;49.90;;;;;;5061741;28;20032;-36
2021/05/22 11:38:13;;;;;;;10.85;5.43;;;23.20;48.10;;;;;;5065398;28;20025;-38
2021/05/22 11:40:39;;;;;;;9.40;4.85;;;23.30;47.60;;;;;;5059169;28;20090;-37
2021/05/22 11:43:13;;;;;;;11.27;5.03;;;23.30;47.60;;;;;;5064346;28;20024;-37
2021/05/22 11:45:42;;;;;;;10.93;5.55;;;23.50;48.10;;;;;;5061783;28;20040;-35
2021/05/22 11:48:29;;;;;;;13.32;5.80;;;23.50;49.20;;;;;;5061711;28;20418;-35
2021/05/22 11:50:58;;;;;;;7.80;4.40;;;23.60;48.40;;;;;;5062303;28;20021;-35
2021/05/22 11:53:25;;;;;;;12.20;5.15;;;23.60;47.40;;;;;;5041567;28;20032;-35
2021/05/22 11:56:09;;;;;;;8.82;4.28;;;23.50;48.00;;;;;;5057973;28;20029;-36
2021/05/22 11:58:38;;;;;;;8.02;4.28;;;23.50;47.80;;;;;;5058201;28;20066;-36
2021/05/22 12:01:10;;;;;;;8.05;4.05;;;23.60;48.40;;;;;;5058724;28;20059;-36
2021/05/22 12:03:37;;;;;;;7.97;3.70;;;23.60;48.40;;;;;;5059886;28;20043;-36
2021/05/22 12:06:03;;;;;;;7.80;4.13;;;23.60;48.70;;;;;;5062741;28;20101;-36
2021/05/22 12:08:31;;;;;;;6.72;4.68;;;23.60;48.70;;;;;;5061747;28;20154;-36
2021/05/22 12:10:57;;;;;;;5.90;3.65;;;23.50;49.00;;;;;;5063098;28;20056;-38
2021/05/22 12:13:24;;;;;;;5.95;3.47;;;23.50;49.40;;;;;;5059792;28;20102;-37
2021/05/22 12:15:49;;;;;;;4.30;3.20;;;23.60;48.90;;;;;;5058520;28;20109;-38
2021/05/22 12:18:16;;;;;;;4.57;2.72;;;23.60;48.70;;;;;;5052161;28;20572;-36
2021/05/22 12:20:49;;;;;;;4.95;3.35;;;23.40;49.20;;;;;;5053756;28;20028;-38
2021/05/22 12:23:26;;;;;;;5.90;3.08;;;23.30;49.60;;;;;;5040385;28;20380;-38
2021/05/22 12:25:52;;;;;;;5.85;3.45;;;23.50;49.60;;;;;;5058661;28;20055;-37
2021/05/22 12:28:18;;;;;;;5.65;3.25;;;23.60;49.70;;;;;;5043662;28;20033;-37
2021/05/22 12:30:44;;;;;;;5.15;3.00;;;23.60;49.60;;;;;;5054192;28;20075;-38
2021/05/22 12:33:17;;;;;;;5.13;3.13;;;23.70;49.80;;;;;;5062188;28;20020;-37
2021/05/22 12:35:46;;;;;;;2.75;2.55;;;23.60;50.40;;;;;;5055198;28;20490;-38
2021/05/22 12:38:12;;;;;;;6.22;3.03;;;23.70;49.80;;;;;;5063227;28;20082;-37
2021/05/22 12:40:49;;;;;;;4.53;3.15;;;23.70;50.50;;;;;;5044326;28;20103;-37
2021/05/22 12:43:15;;;;;;;4.00;2.80;;;23.70;49.80;;;;;;5059468;28;20690;-38
2021/05/22 12:45:43;;;;;;;5.03;3.22;;;23.80;49.70;;;;;;5056084;28;20020;-38
2021/05/22 12:48:24;;;;;;;4.90;2.53;;;23.90;49.60;;;;;;5055398;28;20685;-38
2021/05/22 12:50:49;;;;;;;4.70;2.60;;;23.90;49.50;;;;;;5054171;28;20036;-37